sensor_id;sensor_type;location;lat;lon;timestamp;temperature;humidity
22081;DHT22;11207;59.512;18.050;2022-09-09T00:00:20;8.80;99.90
22081;DHT22;11207;59.512;18.050;2022-09-09T00:03:12;8.70;99.90
22081;DHT22;11207;59.512;18.050;2022-09-09T00:08:19;8.60;99.90
22081;DHT22;11207;59.512;18.050;2022-09-09T00:10:51;8.50;99.90
22081;DHT22;11207;59.512;18.050;2022-09-09T00:13:22;8.50;99.90
22081;DHT22;11207;59.512;18.050;2022-09-09T00:18:56;8.50;99.90
22081;DHT22;11207;59.512;18.050;2022-09-09T00:21:43;8.30;99.90
22081;DHT22;11207;59.512;18.050;2022-09-09T00:29:54;8.20;99.90
22081;DHT22;11207;59.512;18.050;2022-09-09T00:32:21;8.10;99.90
22081;DHT22;11207;59.512;18.050;2022-09-09T00:35:03;8.00;99.90
22081;DHT22;11207;59.512;18.050;2022-09-09T00:37:31;8.00;99.90
22081;DHT22;11207;59.512;18.050;2022-09-09T00:40:00;8.00;99.90
22081;DHT22;11207;59.512;18.050;2022-09-09T00:47:57;7.90;99.90
22081;DHT22;11207;59.512;18.050;2022-09-09T00:50:28;7.80;99.90
22081;DHT22;11207;59.512;18.050;2022-09-09T00:55:48;7.90;99.90
22081;DHT22;11207;59.512;18.050;2022-09-09T00:58:15;8.00;99.90
22081;DHT22;11207;59.512;18.050;2022-09-09T01:00:44;8.10;99.90
22081;DHT22;11207;59.512;18.050;2022-09-09T01:03:35;8.20;99.90
22081;DHT22;11207;59.512;18.050;2022-09-09T01:06:25;8.30;99.90
22081;DHT22;11207;59.512;18.050;2022-09-09T01:09:11;8.30;99.90
22081;DHT22;11207;59.512;18.050;2022-09-09T01:25:18;8.50;99.90
22081;DHT22;11207;59.512;18.050;2022-09-09T01:27:47;8.50;99.90
22081;DHT22;11207;59.512;18.050;2022-09-09T01:30:16;8.60;99.90
22081;DHT22;11207;59.512;18.050;2022-09-09T01:35:15;8.60;99.90
22081;DHT22;11207;59.512;18.050;2022-09-09T01:37:44;8.60;99.90
22081;DHT22;11207;59.512;18.050;2022-09-09T01:40:10;8.70;99.90
22081;DHT22;11207;59.512;18.050;2022-09-09T01:42:38;8.70;99.90
22081;DHT22;11207;59.512;18.050;2022-09-09T01:45:04;8.70;99.90
22081;DHT22;11207;59.512;18.050;2022-09-09T01:47:30;8.70;99.90
22081;DHT22;11207;59.512;18.050;2022-09-09T01:49:56;8.80;99.90
22081;DHT22;11207;59.512;18.050;2022-09-09T01:52:22;8.70;99.90
22081;DHT22;11207;59.512;18.050;2022-09-09T01:54:48;8.80;99.90
22081;DHT22;11207;59.512;18.050;2022-09-09T01:57:42;8.70;99.90
22081;DHT22;11207;59.512;18.050;2022-09-09T02:00:14;8.80;99.90
22081;DHT22;11207;59.512;18.050;2022-09-09T02:05:36;8.80;99.90
22081;DHT22;11207;59.512;18.050;2022-09-09T02:08:20;8.80;99.90
22081;DHT22;11207;59.512;18.050;2022-09-09T02:10:55;8.90;99.90
22081;DHT22;11207;59.512;18.050;2022-09-09T02:13:22;8.90;99.90
22081;DHT22;11207;59.512;18.050;2022-09-09T02:16:13;8.90;99.90
22081;DHT22;11207;59.512;18.050;2022-09-09T02:21:14;8.90;99.90
22081;DHT22;11207;59.512;18.050;2022-09-09T02:23:43;8.90;99.90
22081;DHT22;11207;59.512;18.050;2022-09-09T02:26:13;8.90;99.90
22081;DHT22;11207;59.512;18.050;2022-09-09T02:28:46;8.90;99.90
22081;DHT22;11207;59.512;18.050;2022-09-09T02:31:13;8.90;99.90
22081;DHT22;11207;59.512;18.050;2022-09-09T02:33:46;9.00;99.90
22081;DHT22;11207;59.512;18.050;2022-09-09T02:36:15;9.00;99.90
22081;DHT22;11207;59.512;18.050;2022-09-09T02:38:46;9.00;99.90
22081;DHT22;11207;59.512;18.050;2022-09-09T02:41:17;9.00;99.90
22081;DHT22;11207;59.512;18.050;2022-09-09T02:43:44;9.20;99.90
22081;DHT22;11207;59.512;18.050;2022-09-09T02:49:10;9.10;99.90
22081;DHT22;11207;59.512;18.050;2022-09-09T02:51:49;9.10;99.90
22081;DHT22;11207;59.512;18.050;2022-09-09T02:54:30;9.20;99.90
22081;DHT22;11207;59.512;18.050;2022-09-09T02:59:27;9.40;99.90
22081;DHT22;11207;59.512;18.050;2022-09-09T03:01:53;9.30;99.90
22081;DHT22;11207;59.512;18.050;2022-09-09T03:04:19;9.40;99.90
22081;DHT22;11207;59.512;18.050;2022-09-09T03:06:44;9.30;99.90
22081;DHT22;11207;59.512;18.050;2022-09-09T03:09:10;9.40;99.90
22081;DHT22;11207;59.512;18.050;2022-09-09T03:11:36;9.40;99.90
22081;DHT22;11207;59.512;18.050;2022-09-09T03:14:02;9.40;99.90
22081;DHT22;11207;59.512;18.050;2022-09-09T03:16:28;9.40;99.90
22081;DHT22;11207;59.512;18.050;2022-09-09T03:18:54;9.40;99.90
22081;DHT22;11207;59.512;18.050;2022-09-09T03:21:19;9.40;99.90
22081;DHT22;11207;59.512;18.050;2022-09-09T03:23:45;9.30;99.90
22081;DHT22;11207;59.512;18.050;2022-09-09T03:26:11;9.30;99.90
22081;DHT22;11207;59.512;18.050;2022-09-09T03:28:37;9.50;99.90
22081;DHT22;11207;59.512;18.050;2022-09-09T03:31:05;9.40;99.90
22081;DHT22;11207;59.512;18.050;2022-09-09T03:33:31;9.40;99.90
22081;DHT22;11207;59.512;18.050;2022-09-09T03:35:57;9.50;99.90
22081;DHT22;11207;59.512;18.050;2022-09-09T03:38:23;9.50;99.90
22081;DHT22;11207;59.512;18.050;2022-09-09T03:40:51;9.50;99.90
22081;DHT22;11207;59.512;18.050;2022-09-09T03:43:21;9.60;99.90
22081;DHT22;11207;59.512;18.050;2022-09-09T03:45:47;9.50;99.90
22081;DHT22;11207;59.512;18.050;2022-09-09T03:48:13;9.50;99.90
22081;DHT22;11207;59.512;18.050;2022-09-09T03:50:47;9.50;99.90
22081;DHT22;11207;59.512;18.050;2022-09-09T03:53:14;9.40;99.90
22081;DHT22;11207;59.512;18.050;2022-09-09T03:55:47;9.50;99.90
22081;DHT22;11207;59.512;18.050;2022-09-09T03:58:14;9.50;99.90
22081;DHT22;11207;59.512;18.050;2022-09-09T04:00:40;9.50;99.90
22081;DHT22;11207;59.512;18.050;2022-09-09T04:03:11;9.50;99.90
22081;DHT22;11207;59.512;18.050;2022-09-09T04:05:39;9.60;99.90
22081;DHT22;11207;59.512;18.050;2022-09-09T04:08:08;9.60;99.90
22081;DHT22;11207;59.512;18.050;2022-09-09T04:10:34;9.60;99.90
22081;DHT22;11207;59.512;18.050;2022-09-09T04:13:03;9.60;99.90
22081;DHT22;11207;59.512;18.050;2022-09-09T04:15:29;9.70;99.90
22081;DHT22;11207;59.512;18.050;2022-09-09T04:17:55;9.70;99.90
22081;DHT22;11207;59.512;18.050;2022-09-09T04:20:21;9.70;99.90
22081;DHT22;11207;59.512;18.050;2022-09-09T04:22:47;9.70;99.90
22081;DHT22;11207;59.512;18.050;2022-09-09T04:25:13;9.80;99.90
22081;DHT22;11207;59.512;18.050;2022-09-09T04:27:39;9.80;99.90
22081;DHT22;11207;59.512;18.050;2022-09-09T04:30:06;9.80;99.90
22081;DHT22;11207;59.512;18.050;2022-09-09T04:32:33;9.80;99.90
22081;DHT22;11207;59.512;18.050;2022-09-09T04:34:59;9.80;99.90
22081;DHT22;11207;59.512;18.050;2022-09-09T04:37:24;9.80;99.90
22081;DHT22;11207;59.512;18.050;2022-09-09T04:39:50;9.80;99.90
22081;DHT22;11207;59.512;18.050;2022-09-09T04:42:16;9.90;99.90
22081;DHT22;11207;59.512;18.050;2022-09-09T04:44:45;9.90;99.90
22081;DHT22;11207;59.512;18.050;2022-09-09T04:47:11;10.00;99.90
22081;DHT22;11207;59.512;18.050;2022-09-09T04:49:36;10.00;99.90
22081;DHT22;11207;59.512;18.050;2022-09-09T04:52:03;10.10;99.90
22081;DHT22;11207;59.512;18.050;2022-09-09T04:54:29;10.00;99.90
22081;DHT22;11207;59.512;18.050;2022-09-09T04:56:54;10.00;99.90
22081;DHT22;11207;59.512;18.050;2022-09-09T04:59:21;10.10;99.90
22081;DHT22;11207;59.512;18.050;2022-09-09T05:01:48;10.20;99.90
22081;DHT22;11207;59.512;18.050;2022-09-09T05:04:16;10.10;99.90
22081;DHT22;11207;59.512;18.050;2022-09-09T05:06:41;10.20;99.90
22081;DHT22;11207;59.512;18.050;2022-09-09T05:09:08;10.20;99.90
22081;DHT22;11207;59.512;18.050;2022-09-09T05:11:34;10.10;99.90
22081;DHT22;11207;59.512;18.050;2022-09-09T05:14:04;10.10;99.90
22081;DHT22;11207;59.512;18.050;2022-09-09T05:16:30;10.10;99.90
22081;DHT22;11207;59.512;18.050;2022-09-09T05:18:56;10.10;99.90
22081;DHT22;11207;59.512;18.050;2022-09-09T05:21:23;10.20;99.90
22081;DHT22;11207;59.512;18.050;2022-09-09T05:23:51;10.20;99.90
22081;DHT22;11207;59.512;18.050;2022-09-09T05:26:19;10.30;99.90
22081;DHT22;11207;59.512;18.050;2022-09-09T05:28:45;10.30;99.90
22081;DHT22;11207;59.512;18.050;2022-09-09T05:31:12;10.30;99.90
22081;DHT22;11207;59.512;18.050;2022-09-09T05:33:40;10.30;99.90
22081;DHT22;11207;59.512;18.050;2022-09-09T05:36:17;10.30;99.90
22081;DHT22;11207;59.512;18.050;2022-09-09T05:38:44;10.30;99.90
22081;DHT22;11207;59.512;18.050;2022-09-09T05:41:11;10.30;99.90
22081;DHT22;11207;59.512;18.050;2022-09-09T05:43:38;10.30;99.90
22081;DHT22;11207;59.512;18.050;2022-09-09T05:46:09;10.40;99.90
22081;DHT22;11207;59.512;18.050;2022-09-09T05:48:36;10.40;99.90
22081;DHT22;11207;59.512;18.050;2022-09-09T05:51:03;10.40;99.90
22081;DHT22;11207;59.512;18.050;2022-09-09T05:53:30;10.50;99.90
22081;DHT22;11207;59.512;18.050;2022-09-09T05:56:05;10.50;99.90
22081;DHT22;11207;59.512;18.050;2022-09-09T05:58:32;10.60;99.90
22081;DHT22;11207;59.512;18.050;2022-09-09T06:01:12;10.60;99.90
22081;DHT22;11207;59.512;18.050;2022-09-09T06:03:43;10.80;99.90
22081;DHT22;11207;59.512;18.050;2022-09-09T06:06:12;10.90;99.90
22081;DHT22;11207;59.512;18.050;2022-09-09T06:08:41;11.00;99.90
22081;DHT22;11207;59.512;18.050;2022-09-09T06:11:11;11.10;99.90
22081;DHT22;11207;59.512;18.050;2022-09-09T06:13:38;11.20;99.90
22081;DHT22;11207;59.512;18.050;2022-09-09T06:16:11;11.40;99.90
22081;DHT22;11207;59.512;18.050;2022-09-09T06:18:38;11.50;99.90
22081;DHT22;11207;59.512;18.050;2022-09-09T06:21:05;11.60;99.90
22081;DHT22;11207;59.512;18.050;2022-09-09T06:23:33;11.70;99.90
22081;DHT22;11207;59.512;18.050;2022-09-09T06:26:04;11.90;99.90
22081;DHT22;11207;59.512;18.050;2022-09-09T06:28:31;12.20;99.90
22081;DHT22;11207;59.512;18.050;2022-09-09T06:31:01;12.40;99.90
22081;DHT22;11207;59.512;18.050;2022-09-09T06:33:31;12.60;99.90
22081;DHT22;11207;59.512;18.050;2022-09-09T06:35:57;12.80;99.90
22081;DHT22;11207;59.512;18.050;2022-09-09T06:38:23;13.00;99.90
22081;DHT22;11207;59.512;18.050;2022-09-09T06:40:56;13.10;99.90
22081;DHT22;11207;59.512;18.050;2022-09-09T06:43:22;13.20;99.90
22081;DHT22;11207;59.512;18.050;2022-09-09T06:46:03;13.40;99.90
22081;DHT22;11207;59.512;18.050;2022-09-09T06:48:29;13.60;99.90
22081;DHT22;11207;59.512;18.050;2022-09-09T06:51:09;13.70;99.90
22081;DHT22;11207;59.512;18.050;2022-09-09T06:53:37;13.90;99.90
22081;DHT22;11207;59.512;18.050;2022-09-09T06:58:44;14.00;99.90
22081;DHT22;11207;59.512;18.050;2022-09-09T07:01:15;14.00;99.90
22081;DHT22;11207;59.512;18.050;2022-09-09T07:03:44;14.10;99.90
22081;DHT22;11207;59.512;18.050;2022-09-09T07:06:14;14.20;99.90
22081;DHT22;11207;59.512;18.050;2022-09-09T07:08:42;14.20;99.90
22081;DHT22;11207;59.512;18.050;2022-09-09T07:11:09;14.40;99.90
22081;DHT22;11207;59.512;18.050;2022-09-09T07:13:35;14.40;99.90
22081;DHT22;11207;59.512;18.050;2022-09-09T07:16:09;14.40;99.90
22081;DHT22;11207;59.512;18.050;2022-09-09T07:18:35;14.50;99.90
22081;DHT22;11207;59.512;18.050;2022-09-09T07:21:02;14.60;99.90
22081;DHT22;11207;59.512;18.050;2022-09-09T07:23:30;14.70;99.90
22081;DHT22;11207;59.512;18.050;2022-09-09T07:25:56;14.80;99.90
22081;DHT22;11207;59.512;18.050;2022-09-09T07:28:23;14.90;99.90
22081;DHT22;11207;59.512;18.050;2022-09-09T07:30:57;14.80;99.90
22081;DHT22;11207;59.512;18.050;2022-09-09T07:33:24;14.80;99.90
22081;DHT22;11207;59.512;18.050;2022-09-09T07:35:50;14.60;99.90
22081;DHT22;11207;59.512;18.050;2022-09-09T07:38:16;14.60;99.90
22081;DHT22;11207;59.512;18.050;2022-09-09T07:40:42;14.60;99.90
22081;DHT22;11207;59.512;18.050;2022-09-09T07:43:09;14.70;99.90
22081;DHT22;11207;59.512;18.050;2022-09-09T07:45:35;14.70;99.90
22081;DHT22;11207;59.512;18.050;2022-09-09T07:48:01;14.80;99.90
22081;DHT22;11207;59.512;18.050;2022-09-09T07:50:27;15.00;99.90
22081;DHT22;11207;59.512;18.050;2022-09-09T07:53:03;15.10;99.90
22081;DHT22;11207;59.512;18.050;2022-09-09T07:55:41;15.20;99.90
22081;DHT22;11207;59.512;18.050;2022-09-09T07:58:08;15.40;99.90
22081;DHT22;11207;59.512;18.050;2022-09-09T08:00:33;15.40;99.90
22081;DHT22;11207;59.512;18.050;2022-09-09T08:02:59;15.50;99.90
22081;DHT22;11207;59.512;18.050;2022-09-09T08:05:27;15.70;99.90
22081;DHT22;11207;59.512;18.050;2022-09-09T08:07:53;15.60;99.90
22081;DHT22;11207;59.512;18.050;2022-09-09T08:10:19;15.70;99.50
22081;DHT22;11207;59.512;18.050;2022-09-09T08:12:44;15.70;99.10
22081;DHT22;11207;59.512;18.050;2022-09-09T08:15:11;15.70;99.80
22081;DHT22;11207;59.512;18.050;2022-09-09T08:17:37;15.70;99.20
22081;DHT22;11207;59.512;18.050;2022-09-09T08:20:03;15.80;99.60
22081;DHT22;11207;59.512;18.050;2022-09-09T08:22:32;15.80;98.60
22081;DHT22;11207;59.512;18.050;2022-09-09T08:24:57;15.80;97.80
22081;DHT22;11207;59.512;18.050;2022-09-09T08:27:24;15.80;98.20
22081;DHT22;11207;59.512;18.050;2022-09-09T08:29:50;15.70;97.20
22081;DHT22;11207;59.512;18.050;2022-09-09T08:32:17;15.60;99.00
22081;DHT22;11207;59.512;18.050;2022-09-09T08:34:44;15.50;98.50
22081;DHT22;11207;59.512;18.050;2022-09-09T08:37:09;15.40;98.70
22081;DHT22;11207;59.512;18.050;2022-09-09T08:39:35;15.50;99.30
22081;DHT22;11207;59.512;18.050;2022-09-09T08:42:17;15.50;99.80
22081;DHT22;11207;59.512;18.050;2022-09-09T08:57:51;15.20;99.90
22081;DHT22;11207;59.512;18.050;2022-09-09T09:00:18;15.20;99.90
22081;DHT22;11207;59.512;18.050;2022-09-09T09:03:00;15.20;99.90
22081;DHT22;11207;59.512;18.050;2022-09-09T09:11:00;15.30;99.90
22081;DHT22;11207;59.512;18.050;2022-09-09T09:18:54;15.40;99.80
22081;DHT22;11207;59.512;18.050;2022-09-09T09:21:40;15.50;99.90
22081;DHT22;11207;59.512;18.050;2022-09-09T09:24:18;15.60;99.90
22081;DHT22;11207;59.512;18.050;2022-09-09T09:26:55;15.70;99.90
22081;DHT22;11207;59.512;18.050;2022-09-09T09:29:26;16.00;99.50
22081;DHT22;11207;59.512;18.050;2022-09-09T09:31:53;16.10;99.40
22081;DHT22;11207;59.512;18.050;2022-09-09T09:34:20;16.20;95.60
22081;DHT22;11207;59.512;18.050;2022-09-09T09:36:57;16.20;96.60
22081;DHT22;11207;59.512;18.050;2022-09-09T09:39:32;16.10;96.20
22081;DHT22;11207;59.512;18.050;2022-09-09T09:42:13;16.10;97.20
22081;DHT22;11207;59.512;18.050;2022-09-09T09:44:40;16.10;95.80
22081;DHT22;11207;59.512;18.050;2022-09-09T09:47:14;16.20;95.90
22081;DHT22;11207;59.512;18.050;2022-09-09T09:49:54;16.10;95.90
22081;DHT22;11207;59.512;18.050;2022-09-09T09:52:25;16.20;96.50
22081;DHT22;11207;59.512;18.050;2022-09-09T09:54:53;16.30;97.20
22081;DHT22;11207;59.512;18.050;2022-09-09T09:57:27;16.40;96.40
22081;DHT22;11207;59.512;18.050;2022-09-09T10:00:20;16.60;96.90
22081;DHT22;11207;59.512;18.050;2022-09-09T10:02:47;16.70;95.20
22081;DHT22;11207;59.512;18.050;2022-09-09T10:07:41;16.90;95.20
22081;DHT22;11207;59.512;18.050;2022-09-09T10:10:15;17.10;94.60
22081;DHT22;11207;59.512;18.050;2022-09-09T10:15:35;16.50;95.90
22081;DHT22;11207;59.512;18.050;2022-09-09T10:18:16;16.40;96.00
22081;DHT22;11207;59.512;18.050;2022-09-09T10:23:47;16.30;96.80
22081;DHT22;11207;59.512;18.050;2022-09-09T10:26:28;16.30;96.40
22081;DHT22;11207;59.512;18.050;2022-09-09T10:36:49;16.70;97.40
22081;DHT22;11207;59.512;18.050;2022-09-09T10:39:37;16.80;98.50
22081;DHT22;11207;59.512;18.050;2022-09-09T10:42:06;16.90;96.50
22081;DHT22;11207;59.512;18.050;2022-09-09T10:50:25;17.30;95.40
22081;DHT22;11207;59.512;18.050;2022-09-09T10:53:00;17.30;93.10
22081;DHT22;11207;59.512;18.050;2022-09-09T10:55:35;17.00;93.90
22081;DHT22;11207;59.512;18.050;2022-09-09T10:58:03;16.90;94.80
22081;DHT22;11207;59.512;18.050;2022-09-09T11:00:57;16.90;94.90
22081;DHT22;11207;59.512;18.050;2022-09-09T11:03:29;17.00;94.10
22081;DHT22;11207;59.512;18.050;2022-09-09T11:06:14;16.90;93.50
22081;DHT22;11207;59.512;18.050;2022-09-09T11:08:40;17.00;94.40
22081;DHT22;11207;59.512;18.050;2022-09-09T11:11:16;16.90;95.50
22081;DHT22;11207;59.512;18.050;2022-09-09T11:14:07;17.10;94.30
22081;DHT22;11207;59.512;18.050;2022-09-09T11:16:58;17.10;93.50
22081;DHT22;11207;59.512;18.050;2022-09-09T11:19:44;17.00;92.40
22081;DHT22;11207;59.512;18.050;2022-09-09T11:22:36;17.40;93.10
22081;DHT22;11207;59.512;18.050;2022-09-09T11:25:26;17.60;91.60
22081;DHT22;11207;59.512;18.050;2022-09-09T11:34:02;17.50;92.20
22081;DHT22;11207;59.512;18.050;2022-09-09T11:42:22;17.10;92.40
22081;DHT22;11207;59.512;18.050;2022-09-09T11:44:49;17.40;92.10
22081;DHT22;11207;59.512;18.050;2022-09-09T11:47:34;17.60;91.90
22081;DHT22;11207;59.512;18.050;2022-09-09T11:52:39;17.70;91.00
22081;DHT22;11207;59.512;18.050;2022-09-09T11:55:32;17.50;91.60
22081;DHT22;11207;59.512;18.050;2022-09-09T12:00:48;17.90;91.70
22081;DHT22;11207;59.512;18.050;2022-09-09T12:06:19;17.80;91.50
22081;DHT22;11207;59.512;18.050;2022-09-09T12:08:50;17.90;91.20
22081;DHT22;11207;59.512;18.050;2022-09-09T12:11:29;18.20;92.60
22081;DHT22;11207;59.512;18.050;2022-09-09T12:13:58;18.20;90.50
22081;DHT22;11207;59.512;18.050;2022-09-09T12:16:30;18.10;90.20
22081;DHT22;11207;59.512;18.050;2022-09-09T12:24:09;18.10;90.40
22081;DHT22;11207;59.512;18.050;2022-09-09T12:26:46;18.00;88.70
22081;DHT22;11207;59.512;18.050;2022-09-09T12:30:23;18.10;88.10
22081;DHT22;11207;59.512;18.050;2022-09-09T12:32:25;18.20;90.30
22081;DHT22;11207;59.512;18.050;2022-09-09T12:37:38;18.10;89.30
22081;DHT22;11207;59.512;18.050;2022-09-09T12:40:25;17.90;88.30
22081;DHT22;11207;59.512;18.050;2022-09-09T12:42:51;17.60;90.10
22081;DHT22;11207;59.512;18.050;2022-09-09T12:45:22;17.40;90.30
22081;DHT22;11207;59.512;18.050;2022-09-09T12:47:56;17.20;92.20
22081;DHT22;11207;59.512;18.050;2022-09-09T12:50:24;17.40;91.30
22081;DHT22;11207;59.512;18.050;2022-09-09T12:52:53;17.10;91.90
22081;DHT22;11207;59.512;18.050;2022-09-09T12:55:23;17.20;91.40
22081;DHT22;11207;59.512;18.050;2022-09-09T12:57:50;17.40;90.90
22081;DHT22;11207;59.512;18.050;2022-09-09T13:00:18;17.30;90.00
22081;DHT22;11207;59.512;18.050;2022-09-09T13:02:56;17.20;91.90
22081;DHT22;11207;59.512;18.050;2022-09-09T13:05:25;17.20;91.20
22081;DHT22;11207;59.512;18.050;2022-09-09T13:08:00;17.10;90.70
22081;DHT22;11207;59.512;18.050;2022-09-09T13:10:29;16.90;91.40
22081;DHT22;11207;59.512;18.050;2022-09-09T13:12:56;16.80;92.00
22081;DHT22;11207;59.512;18.050;2022-09-09T13:15:25;16.90;92.20
22081;DHT22;11207;59.512;18.050;2022-09-09T13:17:57;16.80;91.60
22081;DHT22;11207;59.512;18.050;2022-09-09T13:20:26;16.80;92.20
22081;DHT22;11207;59.512;18.050;2022-09-09T13:22:54;16.90;92.40
22081;DHT22;11207;59.512;18.050;2022-09-09T13:25:28;16.90;92.20
22081;DHT22;11207;59.512;18.050;2022-09-09T13:28:02;17.20;92.10
22081;DHT22;11207;59.512;18.050;2022-09-09T13:30:31;17.40;92.50
22081;DHT22;11207;59.512;18.050;2022-09-09T13:35:30;17.20;92.90
22081;DHT22;11207;59.512;18.050;2022-09-09T13:37:57;17.00;93.10
22081;DHT22;11207;59.512;18.050;2022-09-09T13:40:24;16.80;92.90
22081;DHT22;11207;59.512;18.050;2022-09-09T13:42:57;16.90;93.70
22081;DHT22;11207;59.512;18.050;2022-09-09T13:45:25;16.80;92.70
22081;DHT22;11207;59.512;18.050;2022-09-09T13:47:55;16.70;92.90
22081;DHT22;11207;59.512;18.050;2022-09-09T13:50:23;16.80;94.00
22081;DHT22;11207;59.512;18.050;2022-09-09T13:52:54;16.90;93.00
22081;DHT22;11207;59.512;18.050;2022-09-09T13:55:22;16.80;93.50
22081;DHT22;11207;59.512;18.050;2022-09-09T14:00:21;16.70;93.40
22081;DHT22;11207;59.512;18.050;2022-09-09T14:02:48;16.60;93.80
22081;DHT22;11207;59.512;18.050;2022-09-09T14:05:14;16.50;93.50
22081;DHT22;11207;59.512;18.050;2022-09-09T14:07:42;16.60;94.50
22081;DHT22;11207;59.512;18.050;2022-09-09T14:10:09;16.50;93.30
22081;DHT22;11207;59.512;18.050;2022-09-09T14:12:35;16.30;93.00
22081;DHT22;11207;59.512;18.050;2022-09-09T14:15:05;16.30;93.50
22081;DHT22;11207;59.512;18.050;2022-09-09T14:17:31;16.30;94.60
22081;DHT22;11207;59.512;18.050;2022-09-09T14:19:57;16.40;94.20
22081;DHT22;11207;59.512;18.050;2022-09-09T14:22:24;16.50;93.70
22081;DHT22;11207;59.512;18.050;2022-09-09T14:24:50;16.40;93.20
22081;DHT22;11207;59.512;18.050;2022-09-09T14:27:16;16.50;93.30
22081;DHT22;11207;59.512;18.050;2022-09-09T14:29:43;16.50;93.30
22081;DHT22;11207;59.512;18.050;2022-09-09T14:32:10;16.50;93.20
22081;DHT22;11207;59.512;18.050;2022-09-09T14:34:35;16.40;92.90
22081;DHT22;11207;59.512;18.050;2022-09-09T14:37:01;16.30;93.10
22081;DHT22;11207;59.512;18.050;2022-09-09T14:39:27;16.10;93.60
22081;DHT22;11207;59.512;18.050;2022-09-09T14:41:52;16.10;94.10
22081;DHT22;11207;59.512;18.050;2022-09-09T14:44:18;16.00;94.70
22081;DHT22;11207;59.512;18.050;2022-09-09T14:46:44;16.10;94.70
22081;DHT22;11207;59.512;18.050;2022-09-09T14:49:10;15.90;94.20
22081;DHT22;11207;59.512;18.050;2022-09-09T14:51:38;15.90;94.30
22081;DHT22;11207;59.512;18.050;2022-09-09T14:54:04;15.70;95.00
22081;DHT22;11207;59.512;18.050;2022-09-09T14:56:32;15.70;95.60
22081;DHT22;11207;59.512;18.050;2022-09-09T14:59:00;15.80;95.50
22081;DHT22;11207;59.512;18.050;2022-09-09T15:01:29;15.80;95.90
22081;DHT22;11207;59.512;18.050;2022-09-09T15:03:58;15.80;95.80
22081;DHT22;11207;59.512;18.050;2022-09-09T15:06:26;15.90;95.70
22081;DHT22;11207;59.512;18.050;2022-09-09T15:08:53;15.80;95.50
22081;DHT22;11207;59.512;18.050;2022-09-09T15:11:19;15.90;95.30
22081;DHT22;11207;59.512;18.050;2022-09-09T15:13:46;15.70;95.80
22081;DHT22;11207;59.512;18.050;2022-09-09T15:16:17;15.70;95.50
22081;DHT22;11207;59.512;18.050;2022-09-09T15:18:44;15.60;96.00
22081;DHT22;11207;59.512;18.050;2022-09-09T15:21:12;15.70;95.90
22081;DHT22;11207;59.512;18.050;2022-09-09T15:23:38;15.80;95.40
22081;DHT22;11207;59.512;18.050;2022-09-09T15:26:04;15.70;95.30
22081;DHT22;11207;59.512;18.050;2022-09-09T15:28:35;15.70;95.60
22081;DHT22;11207;59.512;18.050;2022-09-09T15:31:11;15.70;96.10
22081;DHT22;11207;59.512;18.050;2022-09-09T15:33:38;15.60;96.00
22081;DHT22;11207;59.512;18.050;2022-09-09T15:36:21;15.60;96.10
22081;DHT22;11207;59.512;18.050;2022-09-09T15:38:47;15.60;96.10
22081;DHT22;11207;59.512;18.050;2022-09-09T15:41:14;15.50;96.20
22081;DHT22;11207;59.512;18.050;2022-09-09T15:43:46;15.40;97.00
22081;DHT22;11207;59.512;18.050;2022-09-09T15:48:50;15.30;97.30
22081;DHT22;11207;59.512;18.050;2022-09-09T15:51:16;15.20;97.80
22081;DHT22;11207;59.512;18.050;2022-09-09T15:53:42;15.10;97.80
22081;DHT22;11207;59.512;18.050;2022-09-09T15:56:08;15.20;97.40
22081;DHT22;11207;59.512;18.050;2022-09-09T15:58:35;15.20;97.60
22081;DHT22;11207;59.512;18.050;2022-09-09T16:01:08;15.10;97.70
22081;DHT22;11207;59.512;18.050;2022-09-09T16:03:40;15.10;98.00
22081;DHT22;11207;59.512;18.050;2022-09-09T16:06:13;14.90;98.20
22081;DHT22;11207;59.512;18.050;2022-09-09T16:08:41;14.90;98.50
22081;DHT22;11207;59.512;18.050;2022-09-09T16:11:14;14.80;99.00
22081;DHT22;11207;59.512;18.050;2022-09-09T16:13:41;14.70;99.50
22081;DHT22;11207;59.512;18.050;2022-09-09T16:16:12;14.60;99.90
22081;DHT22;11207;59.512;18.050;2022-09-09T16:18:43;14.60;99.90
22081;DHT22;11207;59.512;18.050;2022-09-09T16:21:18;14.50;99.90
22081;DHT22;11207;59.512;18.050;2022-09-09T16:23:45;14.50;99.90
22081;DHT22;11207;59.512;18.050;2022-09-09T16:26:12;14.40;99.90
22081;DHT22;11207;59.512;18.050;2022-09-09T16:28:38;14.40;99.90
22081;DHT22;11207;59.512;18.050;2022-09-09T16:31:13;14.30;99.90
22081;DHT22;11207;59.512;18.050;2022-09-09T16:33:39;14.20;99.90
22081;DHT22;11207;59.512;18.050;2022-09-09T16:36:11;14.20;99.90
22081;DHT22;11207;59.512;18.050;2022-09-09T16:38:38;14.10;99.90
22081;DHT22;11207;59.512;18.050;2022-09-09T16:41:05;14.20;99.90
22081;DHT22;11207;59.512;18.050;2022-09-09T16:43:33;14.20;99.90
22081;DHT22;11207;59.512;18.050;2022-09-09T16:45:59;14.10;99.90
22081;DHT22;11207;59.512;18.050;2022-09-09T16:48:31;14.00;99.90
22081;DHT22;11207;59.512;18.050;2022-09-09T16:51:06;13.80;99.90
22081;DHT22;11207;59.512;18.050;2022-09-09T16:53:33;13.70;99.90
22081;DHT22;11207;59.512;18.050;2022-09-09T16:56:05;13.50;99.90
22081;DHT22;11207;59.512;18.050;2022-09-09T16:58:31;13.40;99.90
22081;DHT22;11207;59.512;18.050;2022-09-09T17:01:01;13.30;99.90
22081;DHT22;11207;59.512;18.050;2022-09-09T17:03:30;13.20;99.90
22081;DHT22;11207;59.512;18.050;2022-09-09T17:05:59;13.20;99.90
22081;DHT22;11207;59.512;18.050;2022-09-09T17:08:29;13.10;99.90
22081;DHT22;11207;59.512;18.050;2022-09-09T17:10:56;13.00;99.90
22081;DHT22;11207;59.512;18.050;2022-09-09T17:13:21;12.90;99.90
22081;DHT22;11207;59.512;18.050;2022-09-09T17:15:47;13.00;99.90
22081;DHT22;11207;59.512;18.050;2022-09-09T17:18:13;13.00;99.90
22081;DHT22;11207;59.512;18.050;2022-09-09T17:20:40;12.90;99.90
22081;DHT22;11207;59.512;18.050;2022-09-09T17:23:10;12.70;99.90
22081;DHT22;11207;59.512;18.050;2022-09-09T17:25:37;12.50;99.90
22081;DHT22;11207;59.512;18.050;2022-09-09T17:28:04;12.50;99.90
22081;DHT22;11207;59.512;18.050;2022-09-09T17:30:34;12.30;99.90
22081;DHT22;11207;59.512;18.050;2022-09-09T17:33:00;12.30;99.90
22081;DHT22;11207;59.512;18.050;2022-09-09T17:35:26;12.10;99.90
22081;DHT22;11207;59.512;18.050;2022-09-09T17:37:55;12.10;99.90
22081;DHT22;11207;59.512;18.050;2022-09-09T17:40:22;11.90;99.90
22081;DHT22;11207;59.512;18.050;2022-09-09T17:42:48;11.60;99.90
22081;DHT22;11207;59.512;18.050;2022-09-09T17:45:14;11.60;99.90
22081;DHT22;11207;59.512;18.050;2022-09-09T17:47:40;11.40;99.90